Monroe, IA (50170)

2:05 PM CDT on April 21, 2015 (GMT -0500)
Reasnor, Iowa | | Change Station
CLOSE
Current Station
Personal Weather Station
Location: Reasnor, IA
Elevation: 892 ft
Nearby Weather Stations
Active Advisory: Wind Advisory

Elev 892 ft 41.56 °N, 93.01 °W | Updated 9 seconds ago

Clear
Clear
55.4 °F
Feels Like 55.4 °F
N
25.5
Wind Variable Wind from NW
Gusts 30.0 mph

Today
High -- | Low -- °F
--% Chance of Precip.
Yesterday
High -- | Low -- °F
Precip. -- in
6:23 AM 7:59 PM
Waxing Crescent, 12% visible
Pressure 29.74 in
Visibility 10.0 miles
Clouds Scattered Clouds 6500 ft
Scattered Clouds 7500 ft
Dew Point 25 °F
Humidity 31%
Rainfall 0.00 in
Snow Depth Not available.
UV 4.0 out of 12
Pollen 11.30 out of 12
Air Quality Not available.
Flu Activity Local Activity
METAR KTNU 211855Z AUTO 30021G31KT 10SM SCT065 SCT075 13/M01 A2974 RMK AO2 PWINO

More Conditions Fewer Conditions

Pressure 29.74 in
Visibility 10.0 miles
Clouds Scattered Clouds 6500 ft
Scattered Clouds 7500 ft
Dew Point 25 °F
Humidity 31%
Rainfall 0.00 in
Snow Depth Not available.
UV 4.0 out of 12
Pollen 11.30 out of 12
Air Quality Not available.
Flu Activity Local Activity
METAR KTNU 211855Z AUTO 30021G31KT 10SM SCT065 SCT075 13/M01 A2974 RMK AO2 PWINO

More Conditions Fewer Conditions

10-Day Weather Forecast

Almanac

Astronomy

Apr. 21, 2015 Rise Set
Actual Time
Civil Twilight
Nautical Twilight
Astronomical Twilight
Moon
Length of Visible Light
Length of Day
Tomorrow will be .
, % of the Moon is Illuminated

Today's Extremes

State Highs State Lows

Community

WunderPhotos

Upload Photos

1,815,489 photos uploaded!

WunderBlogs® & News

Nearby

Air Quality

  Air Quality AQ Index Pollutant
Not available.

Snow Depth

Station Depth Elevation

Earthquake Activity

City Distance Mag. Time & Date
Minimum magnitude displayed is 2.5.

Coastal Water Temperatures

Place Temperature

Stations

Nearby Weather Stations

Station Location Temp. Windchill Dew Point Humidity Wind Precip. Elev Updated Type
                   
Wind Advisory
Statement as of 10:23 AM CDT on April 21, 2015

... Wind Advisory in effect until 6 PM CDT this evening...

The National Weather Service in Des Moines has issued a Wind
Advisory... which is in effect until 6 PM CDT this evening.

* Timing... winds will increase through midday with the strongest
winds early this afternoon.

* Winds... northwest at 25 to 30 mph with gusts to near 45 mph.

* Impacts... driving may be difficult at times... especially for
high profile vehicles. Outdoor items may be blown around if not
secured.

Precautionary/preparedness actions...

A Wind Advisory means that sustained winds of 30 mph are expected
with gusts to 45 mph. Winds this strong can make driving
difficult... especially for high profile vehicles. Use extra
caution.